Time;durP1;ratioP1;P1;durP2;ratioP2;P2;SDS_P1;SDS_P2;PMS_P1;PMS_P2;Temp;Humidity;BMP_temperature;BMP_pressure;BME280_temperature;BME280_humidity;BME280_pressure;Samples;Min_cycle;Max_cycle;Signal;HPM_P1;HPM_P2
2021/08/13 00:00:04;;;;;;;12.32;7.70;;;;;;;19.27;88.67;100444.41;5016826;28;20054;-69
2021/08/13 00:02:31;;;;;;;14.95;8.30;;;;;;;19.27;88.74;100444.41;5017314;28;20382;-68
2021/08/13 00:04:58;;;;;;;11.00;7.55;;;;;;;19.28;87.92;100440.69;5020979;28;20092;-68
2021/08/13 00:07:24;;;;;;;13.05;8.27;;;;;;;19.33;86.78;100443.84;5016880;28;20053;-69
2021/08/13 00:09:51;;;;;;;11.77;7.75;;;;;;;19.35;86.76;100447.25;5032005;28;20435;-67
2021/08/13 00:12:18;;;;;;;11.18;8.27;;;;;;;19.29;87.02;100441.56;5013363;28;20119;-68
2021/08/13 00:14:44;;;;;;;14.55;8.77;;;;;;;19.32;87.66;100447.53;5016768;28;20085;-66
2021/08/13 00:17:11;;;;;;;18.10;8.10;;;;;;;19.32;87.55;100461.06;5013926;28;20046;-68
2021/08/13 00:19:38;;;;;;;13.80;8.07;;;;;;;19.26;88.26;100453.53;4997138;28;20062;-67
2021/08/13 00:22:04;;;;;;;13.77;8.27;;;;;;;19.28;86.95;100451.53;5010241;28;20049;-70
2021/08/13 00:24:31;;;;;;;14.73;7.68;;;;;;;19.08;88.80;100435.31;5031773;28;20108;-69
2021/08/13 00:26:57;;;;;;;11.65;8.13;;;;;;;19.12;88.99;100452.97;5016362;28;20351;-68
2021/08/13 00:29:24;;;;;;;14.55;7.65;;;;;;;19.03;90.15;100456.53;5036312;28;20057;-68
2021/08/13 00:31:51;;;;;;;11.48;7.43;;;;;;;18.94;90.08;100455.50;5056233;28;20053;-68
2021/08/13 00:34:17;;;;;;;13.88;8.23;;;;;;;18.96;90.94;100463.47;5056090;28;20059;-68
2021/08/13 00:36:44;;;;;;;14.18;7.47;;;;;;;18.97;90.92;100460.59;5055875;28;20335;-69
2021/08/13 00:39:11;;;;;;;12.52;7.93;;;;;;;18.97;90.50;100460.59;5055965;28;20151;-69
2021/08/13 00:41:37;;;;;;;12.45;7.68;;;;;;;18.98;91.04;100459.63;5055864;28;20397;-69
2021/08/13 00:44:04;;;;;;;10.25;7.57;;;;;;;18.92;91.09;100443.97;5055996;28;20049;-68
2021/08/13 00:46:31;;;;;;;12.38;7.70;;;;;;;18.99;89.93;100464.03;5056059;28;20397;-69
2021/08/13 00:48:57;;;;;;;9.65;6.88;;;;;;;18.98;90.68;100453.34;5038432;28;20048;-69
2021/08/13 00:51:24;;;;;;;13.18;6.88;;;;;;;19.00;90.07;100460.34;5055676;28;20492;-70
2021/08/13 00:53:54;;;;;;;10.30;7.35;;;;;;;19.00;89.95;100462.16;5055658;28;20103;-70
2021/08/13 00:56:21;;;;;;;12.10;7.03;;;;;;;18.98;89.65;100456.94;5055608;28;20349;-69
2021/08/13 00:58:48;;;;;;;10.25;6.97;;;;;;;18.78;91.07;100429.00;5054314;28;20095;-68
2021/08/13 01:01:15;;;;;;;8.27;6.65;;;;;;;18.66;90.14;100409.34;5055830;28;20381;-69
2021/08/13 01:03:42;;;;;;;11.80;6.78;;;;;;;18.90;90.92;100458.63;5055720;28;20052;-68
2021/08/13 01:06:11;;;;;;;12.23;7.35;;;;;;;18.89;90.71;100456.91;5055481;28;20045;-70
2021/08/13 01:08:38;;;;;;;12.20;6.75;;;;;;;18.80;90.84;100450.50;5055356;28;20110;-69
2021/08/13 01:11:26;;;;;;;9.57;6.75;;;;;;;18.88;90.41;100466.88;5037738;28;20414;-69
2021/08/13 01:13:56;;;;;;;9.68;6.40;;;;;;;18.82;90.02;100453.91;5055695;28;20125;-68
2021/08/13 01:16:26;;;;;;;10.85;6.63;;;;;;;18.86;89.90;100460.75;5043316;28;20323;-70
2021/08/13 01:19:04;;;;;;;11.90;6.85;;;;;;;18.91;89.49;100452.22;5035265;28;20057;-68
2021/08/13 01:21:37;;;;;;;11.25;6.60;;;;;;;18.87;89.64;100457.88;5043874;28;20064;-69
2021/08/13 01:24:10;;;;;;;8.70;6.47;;;;;;;18.92;89.96;100459.31;5055142;28;20106;-69
2021/08/13 01:26:42;;;;;;;9.32;6.70;;;;;;;18.88;89.44;100453.34;5055139;28;20103;-68
2021/08/13 01:29:25;;;;;;;10.27;6.80;;;;;;;18.85;90.21;100457.19;5054937;28;20048;-70
2021/08/13 01:32:14;;;;;;;8.75;6.63;;;;;;;18.83;90.54;100448.38;5054904;28;20434;-69
2021/08/13 01:34:47;;;;;;;10.18;6.38;;;;;;;18.73;91.05;100447.47;5055003;28;20053;-69
2021/08/13 01:37:14;;;;;;;9.13;5.95;;;;;;;18.78;91.33;100460.63;5054435;28;20053;-69
2021/08/13 01:39:43;;;;;;;11.30;7.05;;;;;;;18.77;90.52;100459.75;5036682;28;20091;-69
2021/08/13 01:42:10;;;;;;;15.13;6.70;;;;;;;18.80;90.28;100453.19;5053513;28;20040;-68
2021/08/13 01:44:38;;;;;;;11.40;6.45;;;;;;;18.78;89.99;100458.75;5041996;28;20454;-69
2021/08/13 01:47:06;;;;;;;10.70;6.70;;;;;;;18.86;89.08;100460.75;5017578;28;20053;-68
2021/08/13 01:49:33;;;;;;;10.27;6.85;;;;;;;18.70;90.97;100442.38;5041897;28;20091;-68
2021/08/13 01:52:01;;;;;;;8.55;6.43;;;;;;;18.72;91.34;100457.47;5035102;28;20425;-69
2021/08/13 01:54:30;;;;;;;8.50;6.57;;;;;;;18.68;92.64;100457.88;5034609;28;20496;-68
2021/08/13 01:56:58;;;;;;;8.80;6.05;;;;;;;18.65;92.31;100467.13;5039743;28;20342;-69
2021/08/13 01:59:24;;;;;;;11.55;6.88;;;;;;;18.80;90.67;100470.25;5035303;28;20500;-70
2021/08/13 02:01:51;;;;;;;8.93;7.07;;;;;;;18.67;91.14;100472.38;5034778;28;20104;-69
2021/08/13 02:04:19;;;;;;;10.90;7.30;;;;;;;18.60;91.65;100474.78;5034829;28;20397;-69
2021/08/13 02:06:48;;;;;;;12.43;7.22;;;;;;;18.59;92.50;100487.44;5034683;28;20045;-69
2021/08/13 02:09:15;;;;;;;10.70;7.65;;;;;;;18.47;92.69;100488.56;5034616;28;20084;-69
2021/08/13 02:11:43;;;;;;;11.65;7.72;;;;;;;18.42;93.08;100486.25;5034697;28;20103;-68
2021/08/13 02:14:10;;;;;;;11.85;7.90;;;;;;;18.34;93.86;100490.66;5041694;28;20080;-68
2021/08/13 02:16:41;;;;;;;15.10;8.20;;;;;;;18.37;93.29;100487.66;5048389;28;20084;-69
2021/08/13 02:19:17;;;;;;;;;;;;;;;18.34;93.31;100485.25;5054997;28;20048;-69
2021/08/13 02:21:46;;;;;;;15.02;6.72;;;;;;;18.21;93.32;100478.22;5054318;28;19921;-68
2021/08/13 02:24:17;;;;;;;11.95;7.70;;;;;;;18.16;93.83;100484.03;5054702;28;20044;-69
2021/08/13 02:26:44;;;;;;;;;;;;;;;18.15;94.83;100489.56;5055034;28;20049;-69
2021/08/13 02:29:11;;;;;;;10.77;7.10;;;;;;;18.12;94.49;100485.28;5054118;28;20313;-70
2021/08/13 02:31:38;;;;;;;12.73;7.82;;;;;;;18.25;93.64;100505.81;5036788;28;20430;-69
2021/08/13 02:34:05;;;;;;;11.43;7.90;;;;;;;18.07;94.00;100486.69;5054244;28;20048;-69
2021/08/13 02:36:58;;;;;;;12.30;7.38;;;;;;;18.02;94.04;100474.41;5054509;28;20110;-69
2021/08/13 02:39:32;;;;;;;9.50;7.15;;;;;;;18.04;95.22;100476.97;5054535;28;20083;-68
2021/08/13 02:42:01;;;;;;;9.75;7.53;;;;;;;18.02;94.27;100487.91;5048243;28;20088;-69
2021/08/13 02:44:33;;;;;;;8.82;6.88;;;;;;;17.96;94.57;100488.44;5053333;28;20053;-69
2021/08/13 02:47:03;;;;;;;13.65;7.60;;;;;;;17.89;94.94;100490.84;5036931;28;20040;-70
2021/08/13 02:49:30;;;;;;;10.70;8.02;;;;;;;17.91;95.05;100486.16;5054516;28;20049;-68
2021/08/13 02:52:04;;;;;;;9.05;7.07;;;;;;;17.82;95.48;100476.13;5054460;28;20045;-69
2021/08/13 02:54:34;;;;;;;10.02;7.13;;;;;;;17.74;95.63;100468.72;5036782;28;20060;-68
2021/08/13 02:57:02;;;;;;;11.23;6.90;;;;;;;17.76;95.55;100477.53;5054132;28;20221;-68
2021/08/13 02:59:31;;;;;;;9.15;6.63;;;;;;;17.78;95.78;100482.81;5054059;28;20057;-68
2021/08/13 03:02:00;;;;;;;8.75;7.00;;;;;;;17.72;96.23;100476.09;5036507;28;20080;-68
2021/08/13 03:04:33;;;;;;;16.55;7.47;;;;;;;17.69;96.15;100465.56;5054304;28;20052;-69
2021/08/13 03:07:00;;;;;;;12.50;7.65;;;;;;;17.68;96.48;100469.25;5036746;28;20098;-69
2021/08/13 03:09:27;;;;;;;10.88;8.60;;;;;;;17.69;97.01;100464.72;5054030;28;20052;-68
2021/08/13 03:11:55;;;;;;;15.02;8.00;;;;;;;17.73;96.36;100467.00;5054279;28;20052;-69
2021/08/13 03:14:22;;;;;;;13.65;7.97;;;;;;;17.74;95.49;100465.16;5054272;28;20057;-68
2021/08/13 03:16:51;;;;;;;15.70;8.70;;;;;;;17.73;96.15;100464.31;5053879;28;20049;-67
2021/08/13 03:19:20;;;;;;;17.25;9.85;;;;;;;17.76;95.98;100464.03;5054267;28;20049;-68
2021/08/13 03:21:47;;;;;;;14.07;10.68;;;;;;;17.80;96.27;100466.47;5038308;28;20087;-68
2021/08/13 03:24:14;;;;;;;18.85;11.20;;;;;;;17.83;95.80;100458.97;5040068;28;20587;-67
2021/08/13 03:26:41;;;;;;;13.63;9.85;;;;;;;17.82;96.33;100457.25;5040250;28;20098;-69
2021/08/13 03:29:08;;;;;;;14.75;10.45;;;;;;;17.90;95.89;100453.88;5057377;28;20118;-67
2021/08/13 03:31:36;;;;;;;14.82;10.80;;;;;;;17.89;96.21;100457.56;5057567;28;20056;-68
2021/08/13 03:34:05;;;;;;;17.42;10.70;;;;;;;17.87;96.56;100446.91;5057295;28;20053;-68
2021/08/13 03:36:33;;;;;;;13.38;9.60;;;;;;;17.87;96.90;100457.69;5057462;28;20052;-69
2021/08/13 03:39:00;;;;;;;16.67;10.90;;;;;;;17.89;96.95;100452.16;5057457;28;20120;-67
2021/08/13 03:41:27;;;;;;;18.63;11.80;;;;;;;17.85;97.21;100448.00;5057373;28;20110;-67
2021/08/13 03:43:53;;;;;;;13.55;10.32;;;;;;;17.77;97.04;100446.84;5057519;28;20056;-70
2021/08/13 03:46:20;;;;;;;16.17;10.80;;;;;;;17.81;97.64;100447.44;5057437;28;20095;-68
2021/08/13 03:48:47;;;;;;;15.25;10.30;;;;;;;17.68;97.98;100446.78;5039472;28;20057;-68
2021/08/13 03:51:13;;;;;;;12.93;10.02;;;;;;;17.72;98.35;100459.91;5016865;28;20438;-68
2021/08/13 03:53:44;;;;;;;20.95;11.05;;;;;;;17.67;99.04;100461.28;5020193;28;20320;-69
2021/08/13 03:56:11;;;;;;;17.02;11.07;;;;;;;17.64;98.45;100443.50;5037071;28;20053;-69
2021/08/13 03:58:37;;;;;;;19.20;11.25;;;;;;;17.58;98.87;100444.03;5036906;28;20083;-67
2021/08/13 04:01:08;;;;;;;18.17;12.52;;;;;;;17.75;98.10;100459.63;5036916;28;20049;-69
2021/08/13 04:03:35;;;;;;;16.35;11.27;;;;;;;17.71;98.79;100460.03;5036777;28;20420;-67
2021/08/13 04:06:03;;;;;;;17.58;12.23;;;;;;;17.75;98.66;100475.81;5036772;28;20049;-68
2021/08/13 04:08:30;;;;;;;18.80;12.38;;;;;;;17.69;98.49;100470.13;5036734;28;20058;-67
2021/08/13 04:10:57;;;;;;;20.45;12.15;;;;;;;17.64;99.18;100478.59;5019535;28;20327;-68
2021/08/13 04:13:23;;;;;;;16.13;12.80;;;;;;;17.60;99.55;100486.09;5036498;28;20569;-68
2021/08/13 04:15:50;;;;;;;19.42;11.88;;;;;;;17.60;99.40;100485.25;5036627;28;20083;-68
2021/08/13 04:18:17;;;;;;;18.15;11.25;;;;;;;17.58;99.60;100481.81;5036279;28;20350;-68
2021/08/13 04:20:44;;;;;;;16.52;11.85;;;;;;;17.58;99.98;100485.38;5038809;28;20468;-67
2021/08/13 04:23:10;;;;;;;16.85;11.88;;;;;;;17.57;100.00;100489.06;5056464;28;20178;-68
2021/08/13 04:25:37;;;;;;;20.38;11.85;;;;;;;17.50;100.00;100488.72;5056343;28;20053;-68
2021/08/13 04:28:04;;;;;;;20.15;12.30;;;;;;;17.61;100.00;100495.91;5038661;28;20098;-67
2021/08/13 04:30:30;;;;;;;20.13;12.40;;;;;;;17.57;100.00;100485.50;5056009;28;20061;-67
2021/08/13 04:32:57;;;;;;;16.70;11.95;;;;;;;17.57;100.00;100480.09;5038296;28;20095;-68
2021/08/13 04:35:24;;;;;;;14.52;10.95;;;;;;;17.60;100.00;100487.97;5056321;28;20099;-68
2021/08/13 04:37:50;;;;;;;21.65;11.85;;;;;;;17.59;100.00;100491.66;5038365;28;20084;-68
2021/08/13 04:40:17;;;;;;;19.23;12.38;;;;;;;17.68;99.96;100489.97;5056219;28;20064;-69
2021/08/13 04:42:44;;;;;;;23.90;11.75;;;;;;;17.71;100.00;100485.16;5038296;28;20045;-67
2021/08/13 04:45:10;;;;;;;18.70;13.20;;;;;;;17.49;100.00;100448.41;5055922;28;20333;-68
2021/08/13 04:47:37;;;;;;;20.77;12.80;;;;;;;17.71;100.00;100495.97;5056017;28;20041;-67
2021/08/13 04:50:04;;;;;;;19.77;12.20;;;;;;;17.81;100.00;100495.19;5056143;28;20392;-66
2021/08/13 04:52:31;;;;;;;21.88;13.65;;;;;;;17.89;100.00;100492.69;5038683;28;20049;-67
2021/08/13 04:54:58;;;;;;;20.08;13.35;;;;;;;17.90;99.96;100503.34;5018164;28;20061;-67
2021/08/13 04:57:24;;;;;;;22.20;13.63;;;;;;;17.94;99.68;100509.34;5035718;28;20042;-67
2021/08/13 04:59:51;;;;;;;22.05;13.38;;;;;;;18.00;99.46;100519.59;5035963;28;20053;-68
2021/08/13 05:02:22;;;;;;;15.80;12.75;;;;;;;18.01;99.03;100524.00;5049376;28;20045;-67
2021/08/13 05:05:00;;;;;;;19.95;13.10;;;;;;;18.04;99.44;100529.13;5055779;28;20049;-68
2021/08/13 05:07:29;;;;;;;20.77;12.98;;;;;;;18.09;99.12;100519.81;5038004;28;20048;-67
2021/08/13 05:09:57;;;;;;;20.58;13.00;;;;;;;18.12;99.30;100541.16;5055329;28;20127;-68
2021/08/13 05:12:24;;;;;;;22.48;13.13;;;;;;;18.08;99.78;100539.72;5055322;28;20044;-66
2021/08/13 05:14:51;;;;;;;21.20;14.70;;;;;;;18.09;99.08;100538.72;5055198;28;20056;-68
2021/08/13 05:17:18;;;;;;;20.20;14.35;;;;;;;18.05;98.45;100521.94;5055200;28;20044;-67
2021/08/13 05:19:44;;;;;;;20.52;13.93;;;;;;;18.09;98.82;100536.03;5055440;28;20099;-68
2021/08/13 05:22:11;;;;;;;22.35;14.77;;;;;;;18.02;98.92;100525.72;5055399;28;20053;-68
2021/08/13 05:24:38;;;;;;;23.58;14.55;;;;;;;17.99;99.62;100542.22;5055238;28;20044;-68
2021/08/13 05:27:05;;;;;;;28.70;15.98;;;;;;;17.94;99.42;100544.44;5056260;28;20721;-67
2021/08/13 05:29:31;;;;;;;24.08;16.52;;;;;;;17.90;99.64;100546.56;5054889;28;20110;-67
2021/08/13 05:31:58;;;;;;;24.15;16.55;;;;;;;17.85;99.90;100545.22;5055233;28;20045;-67
2021/08/13 05:34:25;;;;;;;24.63;15.60;;;;;;;17.80;100.00;100555.56;5055009;28;20049;-67
2021/08/13 05:36:51;;;;;;;24.73;17.42;;;;;;;17.81;100.00;100570.78;5055303;28;20384;-68
2021/08/13 05:39:18;;;;;;;21.70;16.92;;;;;;;17.86;100.00;100577.50;5054962;28;20057;-69
2021/08/13 05:41:44;;;;;;;26.52;18.15;;;;;;;17.87;100.00;100587.31;5021329;28;20141;-68
2021/08/13 05:44:11;;;;;;;29.08;18.02;;;;;;;17.91;100.00;100577.09;5054479;28;20061;-67
2021/08/13 05:46:42;;;;;;;28.60;19.98;;;;;;;17.94;100.00;100587.66;5054649;28;20530;-68
2021/08/13 05:49:08;;;;;;;29.13;22.48;;;;;;;17.95;99.73;100577.69;5054943;28;20097;-69
2021/08/13 05:51:35;;;;;;;35.17;25.65;;;;;;;18.03;99.54;100605.75;5054778;28;20395;-68
2021/08/13 05:54:05;;;;;;;37.63;26.02;;;;;;;18.06;99.78;100604.66;5054662;28;20056;-69
2021/08/13 05:56:32;;;;;;;39.20;27.88;;;;;;;17.88;100.00;100594.41;5036911;28;20057;-69
2021/08/13 05:59:00;;;;;;;36.38;27.90;;;;;;;18.02;100.00;100600.47;5054715;28;20058;-68
2021/08/13 06:01:27;;;;;;;36.42;27.08;;;;;;;18.09;99.81;100609.78;5054386;28;20049;-69
2021/08/13 06:03:54;;;;;;;41.55;28.80;;;;;;;18.16;98.31;100607.44;5054524;28;20049;-68
2021/08/13 06:06:20;;;;;;;36.50;25.70;;;;;;;18.05;98.56;100584.88;5054173;28;20053;-68
2021/08/13 06:08:47;;;;;;;36.45;24.95;;;;;;;18.22;98.38;100609.59;5054373;28;20056;-72
2021/08/13 06:11:14;;;;;;;35.80;24.10;;;;;;;18.26;97.60;100608.34;5054030;28;20107;-69
2021/08/13 06:13:41;;;;;;;35.08;25.08;;;;;;;18.37;97.67;100614.66;5054101;28;20449;-68
2021/08/13 06:16:08;;;;;;;38.13;26.25;;;;;;;18.39;97.39;100608.16;5054028;28;20092;-68
2021/08/13 06:18:36;;;;;;;37.22;26.85;;;;;;;18.39;96.45;100604.56;5050998;28;20081;-66
2021/08/13 06:21:03;;;;;;;39.35;25.85;;;;;;;18.32;97.35;100609.66;5023833;28;20053;-68
2021/08/13 06:23:29;;;;;;;38.45;26.80;;;;;;;18.35;96.92;100622.06;5032132;28;20053;-67
2021/08/13 06:25:56;;;;;;;42.47;26.63;;;;;;;18.42;97.21;100621.38;5036617;28;20083;-71
2021/08/13 06:28:23;;;;;;;33.60;26.02;;;;;;;18.39;96.36;100623.50;5029507;28;20053;-67
2021/08/13 06:30:49;;;;;;;34.75;24.90;;;;;;;18.46;95.78;100624.66;5051316;28;20068;-67
2021/08/13 06:33:16;;;;;;;32.13;22.08;;;;;;;18.49;94.79;100624.41;5052643;28;20056;-67
2021/08/13 06:35:43;;;;;;;31.80;22.73;;;;;;;18.55;93.12;100623.00;5052609;28;20400;-66
2021/08/13 06:38:09;;;;;;;30.65;21.48;;;;;;;18.50;93.79;100620.72;5034492;28;20304;-67
2021/08/13 06:40:36;;;;;;;27.98;21.30;;;;;;;18.57;94.32;100627.28;5053143;28;20122;-67
2021/08/13 06:43:03;;;;;;;31.55;20.15;;;;;;;18.69;93.77;100636.16;5035638;28;20060;-67
2021/08/13 06:45:29;;;;;;;30.15;19.85;;;;;;;18.64;91.80;100629.47;5035826;28;20354;-68
2021/08/13 06:47:56;;;;;;;25.83;18.75;;;;;;;18.70;92.52;100632.47;5053586;28;20056;-67
2021/08/13 06:50:23;;;;;;;31.27;19.50;;;;;;;18.80;91.03;100629.81;5052494;28;20079;-69
2021/08/13 06:52:50;;;;;;;24.23;19.00;;;;;;;18.67;91.56;100621.06;5052187;28;20053;-69
2021/08/13 06:55:17;;;;;;;31.85;18.67;;;;;;;18.72;91.13;100635.03;5053663;28;20052;-71
2021/08/13 06:57:44;;;;;;;23.10;17.45;;;;;;;18.69;90.97;100627.22;5056703;28;20425;-72
2021/08/13 07:00:13;;;;;;;20.75;16.10;;;;;;;18.74;88.92;100624.94;5060977;28;20110;-70
2021/08/13 07:02:47;;;;;;;21.00;14.45;;;;;;;18.84;89.26;100633.09;5057037;28;20095;-71
2021/08/13 07:05:16;;;;;;;23.92;14.88;;;;;;;18.72;88.17;100637.75;5055877;28;20044;-71
2021/08/13 07:07:43;;;;;;;22.63;14.13;;;;;;;18.83;88.44;100640.38;5056258;28;20045;-73
2021/08/13 07:10:11;;;;;;;21.90;13.35;;;;;;;18.86;86.60;100636.53;5039537;28;20111;-72
2021/08/13 07:12:39;;;;;;;17.15;13.32;;;;;;;18.91;86.32;100650.47;5065903;28;20045;-68
2021/08/13 07:15:07;;;;;;;17.40;12.25;;;;;;;18.92;86.58;100657.63;5038836;28;20392;-71
2021/08/13 07:17:34;;;;;;;18.48;12.77;;;;;;;18.96;86.34;100667.16;5058712;28;20051;-68
2021/08/13 07:20:05;;;;;;;23.63;12.88;;;;;;;18.91;86.10;100663.16;5056920;28;20064;-70
2021/08/13 07:22:32;;;;;;;19.65;13.07;;;;;;;18.95;86.17;100662.75;5056597;28;20449;-71
2021/08/13 07:24:59;;;;;;;20.27;12.93;;;;;;;18.83;86.72;100670.13;5056113;28;20119;-70
2021/08/13 07:27:29;;;;;;;18.02;12.73;;;;;;;19.00;86.55;100678.56;5035348;28;20087;-71
2021/08/13 07:29:56;;;;;;;22.03;12.80;;;;;;;18.96;85.70;100672.56;5038993;28;20407;-74
2021/08/13 07:32:22;;;;;;;20.92;12.73;;;;;;;18.96;86.71;100675.28;5038155;28;20045;-73
2021/08/13 07:34:49;;;;;;;17.38;12.93;;;;;;;19.10;86.03;100687.63;5054820;28;20117;-68
2021/08/13 07:37:19;;;;;;;;;;;;;;;19.18;86.36;100688.78;5054288;28;20143;-69
2021/08/13 07:39:48;;;;;;;16.23;11.70;;;;;;;19.27;85.85;100685.25;5056386;28;19922;-73
2021/08/13 07:42:16;;;;;;;17.58;11.68;;;;;;;19.17;84.66;100689.78;5038556;28;20053;-69
2021/08/13 07:44:43;;;;;;;16.20;11.63;;;;;;;19.17;84.63;100687.06;5056462;28;20053;-69
2021/08/13 07:47:13;;;;;;;15.75;11.30;;;;;;;19.26;83.31;100689.81;5056663;28;20049;-70
2021/08/13 07:49:40;;;;;;;13.43;10.35;;;;;;;19.29;82.96;100688.69;5056616;28;20067;-69
2021/08/13 07:52:07;;;;;;;18.02;9.70;;;;;;;19.32;84.10;100685.69;5059081;28;20441;-69
2021/08/13 07:54:33;;;;;;;17.98;10.43;;;;;;;19.31;82.44;100699.34;5055971;28;20060;-65
2021/08/13 07:57:01;;;;;;;15.50;9.82;;;;;;;19.27;81.76;100702.34;5055649;28;20061;-73
2021/08/13 07:59:27;;;;;;;12.00;9.27;;;;;;;19.34;82.53;100710.75;5056357;28;20049;-75
2021/08/13 08:01:54;;;;;;;15.38;9.30;;;;;;;19.35;81.54;100714.34;5067327;28;20044;-67
2021/08/13 08:04:21;;;;;;;16.05;9.55;;;;;;;19.41;80.47;100716.50;5056824;28;20114;-68
2021/08/13 08:06:47;;;;;;;13.20;9.23;;;;;;;19.45;81.00;100711.66;5061219;28;20045;-67
2021/08/13 08:09:14;;;;;;;13.43;8.55;;;;;;;19.61;80.17;100720.09;5043906;28;20049;-67
2021/08/13 08:11:40;;;;;;;12.18;8.68;;;;;;;19.61;80.22;100717.38;5072813;28;20090;-68
2021/08/13 08:14:08;;;;;;;11.82;7.57;;;;;;;19.71;80.80;100721.97;5074882;28;20082;-67
2021/08/13 08:16:35;;;;;;;11.07;8.20;;;;;;;19.66;80.13;100712.41;5057708;28;20052;-66
2021/08/13 08:19:02;;;;;;;10.45;8.27;;;;;;;19.73;79.44;100725.41;5056778;28;20391;-71
2021/08/13 08:21:29;;;;;;;10.90;7.75;;;;;;;19.78;79.52;100731.25;5055879;28;20388;-69
2021/08/13 08:23:56;;;;;;;12.65;8.05;;;;;;;19.67;79.68;100743.06;5056573;28;20433;-70
2021/08/13 08:26:23;;;;;;;18.15;8.13;;;;;;;19.78;78.20;100731.25;5037333;28;20102;-66
2021/08/13 08:28:51;;;;;;;11.98;7.47;;;;;;;19.71;77.54;100724.69;5058537;28;20041;-69
2021/08/13 08:31:18;;;;;;;13.68;8.57;;;;;;;19.81;77.64;100736.38;5038043;28;20061;-67
2021/08/13 08:33:45;;;;;;;14.23;8.18;;;;;;;19.78;77.72;100732.09;5059969;28;20277;-69
2021/08/13 08:36:12;;;;;;;13.23;6.80;;;;;;;19.82;78.47;100724.53;5055544;28;20053;-71
2021/08/13 08:38:39;;;;;;;11.07;6.95;;;;;;;19.87;78.29;100733.13;5036262;28;20426;-68
2021/08/13 08:41:08;;;;;;;11.48;7.05;;;;;;;20.00;76.81;100727.44;5054712;28;20452;-68
2021/08/13 08:43:35;;;;;;;11.18;6.80;;;;;;;20.01;76.27;100731.88;5054925;28;20064;-69
2021/08/13 08:46:02;;;;;;;8.10;5.90;;;;;;;20.11;76.97;100733.72;5036878;28;20106;-69
2021/08/13 08:48:38;;;;;;;11.20;5.75;;;;;;;20.04;76.87;100747.84;5055090;28;20322;-70
2021/08/13 08:51:06;;;;;;;8.23;5.60;;;;;;;20.12;75.64;100758.00;5055387;28;20049;-69
2021/08/13 08:53:34;;;;;;;8.27;5.53;;;;;;;20.26;76.41;100764.00;5056946;28;20041;-69
2021/08/13 08:56:01;;;;;;;7.50;5.22;;;;;;;20.46;76.15;100757.56;5056766;28;20345;-69
2021/08/13 08:58:33;;;;;;;6.25;4.90;;;;;;;20.57;74.37;100756.53;5037704;28;20051;-68
2021/08/13 09:01:00;;;;;;;8.00;5.53;;;;;;;20.67;73.60;100751.09;5054623;28;20045;-67
2021/08/13 09:03:28;;;;;;;8.98;6.10;;;;;;;20.63;72.95;100750.53;5054162;28;20115;-68
2021/08/13 09:05:56;;;;;;;9.18;5.00;;;;;;;20.67;72.53;100745.69;5054801;28;20048;-70
2021/08/13 09:08:22;;;;;;;6.55;3.97;;;;;;;20.70;73.31;100748.09;5054435;28;20090;-72
2021/08/13 09:10:49;;;;;;;7.05;4.22;;;;;;;20.80;73.06;100747.22;5052412;28;20052;-74
2021/08/13 09:13:22;;;;;;;7.47;3.80;;;;;;;20.92;73.24;100761.50;5054639;28;20057;-72
2021/08/13 09:15:53;;;;;;;7.55;3.67;;;;;;;21.01;72.49;100764.19;5054650;28;20045;-71
2021/08/13 09:18:25;;;;;;;6.13;3.88;;;;;;;21.03;71.71;100745.06;5051998;28;20049;-75
2021/08/13 09:20:57;;;;;;;9.93;3.50;;;;;;;21.16;73.02;100755.56;5053916;28;20158;-73
2021/08/13 09:23:45;;;;;;;7.88;2.75;;;;;;;21.44;72.02;100752.88;5037475;28;20049;-74
2021/08/13 09:26:13;;;;;;;4.45;2.78;;;;;;;21.66;70.81;100750.75;5053503;28;20075;-71
2021/08/13 09:28:44;;;;;;;2.90;2.42;;;;;;;21.47;69.50;100743.56;5054088;28;20113;-69
2021/08/13 09:31:23;;;;;;;4.75;2.75;;;;;;;21.61;71.29;100744.94;5053713;28;20460;-68
2021/08/13 09:33:53;;;;;;;3.63;2.65;;;;;;;21.65;71.07;100755.34;5053433;28;20045;-69
2021/08/13 09:36:22;;;;;;;5.45;3.00;;;;;;;21.76;71.63;100757.03;5053851;28;20041;-69
2021/08/13 09:39:01;;;;;;;7.18;3.20;;;;;;;21.79;70.95;100758.59;5052340;28;20041;-67
2021/08/13 09:41:28;;;;;;;4.57;2.38;;;;;;;21.85;70.08;100744.38;5053286;28;20053;-72
2021/08/13 09:43:58;;;;;;;3.35;2.38;;;;;;;22.04;70.96;100759.69;5053831;28;20080;-73
2021/08/13 09:46:26;;;;;;;4.47;2.60;;;;;;;22.14;69.92;100765.06;5061870;28;20045;-69
2021/08/13 09:48:53;;;;;;;7.65;3.40;;;;;;;22.05;68.88;100755.94;5057351;28;20080;-72
2021/08/13 09:51:34;;;;;;;5.68;2.58;;;;;;;21.92;68.92;100745.47;5035871;28;20045;-72
2021/08/13 09:54:06;;;;;;;4.72;2.70;;;;;;;21.93;68.82;100757.19;5036335;28;20080;-71
2021/08/13 09:56:36;;;;;;;3.22;2.30;;;;;;;22.07;68.55;100759.38;5070837;28;20052;-67
2021/08/13 09:59:20;;;;;;;6.47;2.83;;;;;;;22.11;69.32;100743.59;5054645;28;20102;-70
2021/08/13 10:01:48;;;;;;;7.75;2.25;;;;;;;22.09;70.44;100738.34;5052499;28;20072;-69
2021/08/13 10:04:17;;;;;;;5.43;2.97;;;;;;;22.01;68.68;100751.00;5053503;28;20075;-72
2021/08/13 10:06:45;;;;;;;3.50;2.78;;;;;;;21.85;69.42;100752.53;5056310;28;20114;-70
2021/08/13 10:09:26;;;;;;;4.30;2.90;;;;;;;22.00;69.06;100755.56;5036126;28;20332;-71
2021/08/13 10:12:00;;;;;;;3.92;2.50;;;;;;;22.00;69.43;100755.56;5057131;28;20075;-70
2021/08/13 10:14:35;;;;;;;3.35;2.10;;;;;;;21.94;69.53;100754.31;5034938;28;20057;-69
2021/08/13 10:17:28;;;;;;;4.88;2.25;;;;;;;22.18;69.87;100762.88;5054250;28;20060;-69
2021/08/13 10:19:55;;;;;;;2.97;1.70;;;;;;;22.30;69.18;100758.03;5034773;28;20057;-68
2021/08/13 10:22:21;;;;;;;2.58;1.73;;;;;;;22.33;68.20;100747.72;5041187;28;20045;-65
2021/08/13 10:24:48;;;;;;;4.78;1.90;;;;;;;22.45;68.64;100752.91;5053772;28;20053;-69
2021/08/13 10:27:17;;;;;;;2.00;1.80;;;;;;;22.45;68.87;100745.59;5053760;28;20053;-69
2021/08/13 10:29:47;;;;;;;3.58;1.67;;;;;;;22.45;68.14;100739.31;5053814;28;20080;-69
2021/08/13 10:32:23;;;;;;;3.45;1.67;;;;;;;22.46;68.67;100738.31;5057986;28;20186;-70
2021/08/13 10:34:50;;;;;;;3.30;2.15;;;;;;;22.51;68.09;100734.13;5058691;28;20114;-70
2021/08/13 10:37:17;;;;;;;7.80;2.17;;;;;;;22.65;66.97;100745.44;5057858;28;20541;-71
2021/08/13 10:39:46;;;;;;;5.43;2.08;;;;;;;22.57;66.71;100753.53;5058024;28;20103;-73
2021/08/13 10:42:22;;;;;;;4.20;1.90;;;;;;;22.37;66.85;100754.56;5058145;28;20056;-71
2021/08/13 10:44:53;;;;;;;2.33;2.13;;;;;;;22.28;68.39;100747.31;5058370;28;20060;-71
2021/08/13 10:47:27;;;;;;;4.05;2.10;;;;;;;22.33;68.01;100742.28;5056411;28;20060;-72
2021/08/13 10:49:56;;;;;;;5.13;1.77;;;;;;;22.63;67.52;100752.91;5058191;28;20106;-69
2021/08/13 10:52:37;;;;;;;3.72;1.70;;;;;;;22.91;67.32;100728.25;5049006;28;20102;-71
2021/08/13 10:55:08;;;;;;;2.13;1.75;;;;;;;23.15;64.52;100757.47;5057813;28;20144;-69
2021/08/13 10:57:47;;;;;;;4.50;1.55;;;;;;;23.31;64.38;100755.91;5052543;28;20360;-68
2021/08/13 11:00:21;;;;;;;4.17;1.70;;;;;;;23.49;64.79;100755.81;5047016;28;20053;-68
2021/08/13 11:03:20;;;;;;;2.63;1.58;;;;;;;23.48;64.12;100755.97;5024998;28;20476;-67
2021/08/13 11:06:00;;;;;;;2.90;1.38;;;;;;;23.45;64.96;100748.97;5055747;28;20095;-68
2021/08/13 11:08:39;;;;;;;;;;;;;;;23.47;64.52;100746.94;5058086;28;20261;-69
2021/08/13 11:11:13;;;;;;;3.92;2.00;;;;;;;23.84;62.78;100745.69;5057825;28;19944;-67
2021/08/13 11:13:41;;;;;;;3.38;2.00;;;;;;;24.12;63.41;100741.84;5057386;28;20418;-67
2021/08/13 11:16:33;;;;;;;2.20;1.70;;;;;;;24.27;62.99;100745.63;5057437;28;20575;-67
2021/08/13 11:19:07;;;;;;;4.13;1.73;;;;;;;24.29;62.66;100745.44;5057421;28;20056;-68
2021/08/13 11:21:41;;;;;;;2.22;1.48;;;;;;;24.51;62.22;100741.16;5040065;28;20057;-68
2021/08/13 11:24:12;;;;;;;4.78;2.08;;;;;;;24.58;62.46;100740.47;5057709;28;20057;-68